sensor_id;sensor_type;location;lat;lon;timestamp;temperature;humidity
74087;SHT30;62445;48.406;-4.518;2023-06-14T00:01:37;26.04;54.71
74087;SHT30;62445;48.406;-4.518;2023-06-14T00:04:03;26.01;54.59
74087;SHT30;62445;48.406;-4.518;2023-06-14T00:06:30;26.01;54.72
74087;SHT30;62445;48.406;-4.518;2023-06-14T00:08:56;26.01;54.69
74087;SHT30;62445;48.406;-4.518;2023-06-14T00:11:21;26.01;54.58
74087;SHT30;62445;48.406;-4.518;2023-06-14T00:13:46;26.03;54.58
74087;SHT30;62445;48.406;-4.518;2023-06-14T00:16:12;26.00;54.55
74087;SHT30;62445;48.406;-4.518;2023-06-14T00:18:38;26.00;54.64
74087;SHT30;62445;48.406;-4.518;2023-06-14T00:21:04;25.99;54.62
74087;SHT30;62445;48.406;-4.518;2023-06-14T00:23:30;25.97;54.60
74087;SHT30;62445;48.406;-4.518;2023-06-14T00:25:55;25.99;54.66
74087;SHT30;62445;48.406;-4.518;2023-06-14T00:28:21;25.96;54.60
74087;SHT30;62445;48.406;-4.518;2023-06-14T00:30:46;25.97;54.60
74087;SHT30;62445;48.406;-4.518;2023-06-14T00:33:12;25.99;54.58
74087;SHT30;62445;48.406;-4.518;2023-06-14T00:35:38;25.96;54.56
74087;SHT30;62445;48.406;-4.518;2023-06-14T00:38:03;25.97;54.46
74087;SHT30;62445;48.406;-4.518;2023-06-14T00:40:29;25.94;54.45
74087;SHT30;62445;48.406;-4.518;2023-06-14T00:42:54;25.96;54.46
74087;SHT30;62445;48.406;-4.518;2023-06-14T00:45:20;25.96;54.51
74087;SHT30;62445;48.406;-4.518;2023-06-14T00:47:46;25.96;54.44
74087;SHT30;62445;48.406;-4.518;2023-06-14T00:50:13;25.94;54.43
74087;SHT30;62445;48.406;-4.518;2023-06-14T00:52:39;25.92;54.34
74087;SHT30;62445;48.406;-4.518;2023-06-14T00:55:05;25.94;54.32
74087;SHT30;62445;48.406;-4.518;2023-06-14T00:57:31;25.93;54.45
74087;SHT30;62445;48.406;-4.518;2023-06-14T00:59:57;25.92;54.41
74087;SHT30;62445;48.406;-4.518;2023-06-14T01:02:22;25.93;54.36
74087;SHT30;62445;48.406;-4.518;2023-06-14T01:04:50;25.90;54.34
74087;SHT30;62445;48.406;-4.518;2023-06-14T01:10:02;25.90;54.39
74087;SHT30;62445;48.406;-4.518;2023-06-14T01:12:39;25.88;54.37
74087;SHT30;62445;48.406;-4.518;2023-06-14T01:15:07;25.90;54.36
74087;SHT30;62445;48.406;-4.518;2023-06-14T01:17:34;25.90;54.47
74087;SHT30;62445;48.406;-4.518;2023-06-14T01:20:02;25.90;54.47
74087;SHT30;62445;48.406;-4.518;2023-06-14T01:22:28;25.89;54.38
74087;SHT30;62445;48.406;-4.518;2023-06-14T01:24:54;25.88;54.44
74087;SHT30;62445;48.406;-4.518;2023-06-14T01:27:23;25.89;54.31
74087;SHT30;62445;48.406;-4.518;2023-06-14T01:29:51;25.88;54.29
74087;SHT30;62445;48.406;-4.518;2023-06-14T01:32:24;25.88;54.28
74087;SHT30;62445;48.406;-4.518;2023-06-14T01:34:50;25.89;54.29
74087;SHT30;62445;48.406;-4.518;2023-06-14T01:37:16;25.86;54.28
74087;SHT30;62445;48.406;-4.518;2023-06-14T01:39:43;25.85;54.27
74087;SHT30;62445;48.406;-4.518;2023-06-14T01:42:09;25.85;54.33
74087;SHT30;62445;48.406;-4.518;2023-06-14T01:44:36;25.86;54.22
74087;SHT30;62445;48.406;-4.518;2023-06-14T01:47:02;25.86;54.28
74087;SHT30;62445;48.406;-4.518;2023-06-14T01:49:28;25.82;54.22
74087;SHT30;62445;48.406;-4.518;2023-06-14T01:51:53;25.82;54.20
74087;SHT30;62445;48.406;-4.518;2023-06-14T01:54:19;25.82;54.20
74087;SHT30;62445;48.406;-4.518;2023-06-14T01:56:44;25.82;54.18
74087;SHT30;62445;48.406;-4.518;2023-06-14T01:59:10;25.83;54.20
74087;SHT30;62445;48.406;-4.518;2023-06-14T02:01:35;25.82;54.19
74087;SHT30;62445;48.406;-4.518;2023-06-14T02:04:01;25.79;54.17
74087;SHT30;62445;48.406;-4.518;2023-06-14T02:06:27;25.82;54.35
74087;SHT30;62445;48.406;-4.518;2023-06-14T02:08:53;25.80;54.29
74087;SHT30;62445;48.406;-4.518;2023-06-14T02:11:18;25.80;54.27
74087;SHT30;62445;48.406;-4.518;2023-06-14T02:13:44;25.80;54.31
74087;SHT30;62445;48.406;-4.518;2023-06-14T02:16:10;25.80;54.26
74087;SHT30;62445;48.406;-4.518;2023-06-14T02:18:36;25.79;54.20
74087;SHT30;62445;48.406;-4.518;2023-06-14T02:21:01;25.79;54.18
74087;SHT30;62445;48.406;-4.518;2023-06-14T02:23:27;25.79;54.22
74087;SHT30;62445;48.406;-4.518;2023-06-14T02:25:52;25.80;54.19
74087;SHT30;62445;48.406;-4.518;2023-06-14T02:28:18;25.79;54.19
74087;SHT30;62445;48.406;-4.518;2023-06-14T02:30:43;25.79;54.23
74087;SHT30;62445;48.406;-4.518;2023-06-14T02:33:09;25.76;54.19
74087;SHT30;62445;48.406;-4.518;2023-06-14T02:35:37;25.76;54.16
74087;SHT30;62445;48.406;-4.518;2023-06-14T02:38:03;25.78;54.19
74087;SHT30;62445;48.406;-4.518;2023-06-14T02:40:28;25.76;54.17
74087;SHT30;62445;48.406;-4.518;2023-06-14T02:42:53;25.75;54.15
74087;SHT30;62445;48.406;-4.518;2023-06-14T02:45:19;25.76;54.20
74087;SHT30;62445;48.406;-4.518;2023-06-14T02:47:46;25.75;54.21
74087;SHT30;62445;48.406;-4.518;2023-06-14T02:50:11;25.75;54.17
74087;SHT30;62445;48.406;-4.518;2023-06-14T02:52:37;25.73;54.20
74087;SHT30;62445;48.406;-4.518;2023-06-14T02:55:03;25.76;54.18
74087;SHT30;62445;48.406;-4.518;2023-06-14T02:57:29;25.73;54.16
74087;SHT30;62445;48.406;-4.518;2023-06-14T02:59:54;25.72;54.22
74087;SHT30;62445;48.406;-4.518;2023-06-14T03:02:20;25.73;54.24
74087;SHT30;62445;48.406;-4.518;2023-06-14T03:04:45;25.75;54.25
74087;SHT30;62445;48.406;-4.518;2023-06-14T03:07:12;25.73;54.25
74087;SHT30;62445;48.406;-4.518;2023-06-14T03:09:38;25.75;54.21
74087;SHT30;62445;48.406;-4.518;2023-06-14T03:12:05;25.72;54.17
74087;SHT30;62445;48.406;-4.518;2023-06-14T03:14:35;25.73;54.21
74087;SHT30;62445;48.406;-4.518;2023-06-14T03:17:01;25.70;54.22
74087;SHT30;62445;48.406;-4.518;2023-06-14T03:19:26;25.70;54.19
74087;SHT30;62445;48.406;-4.518;2023-06-14T03:21:52;25.70;54.22
74087;SHT30;62445;48.406;-4.518;2023-06-14T03:24:19;25.72;54.20
74087;SHT30;62445;48.406;-4.518;2023-06-14T03:26:45;25.72;54.12
74087;SHT30;62445;48.406;-4.518;2023-06-14T03:29:11;25.70;54.21
74087;SHT30;62445;48.406;-4.518;2023-06-14T03:31:56;25.75;54.15
74087;SHT30;62445;48.406;-4.518;2023-06-14T03:34:22;25.70;54.22
74087;SHT30;62445;48.406;-4.518;2023-06-14T03:36:48;25.66;54.16
74087;SHT30;62445;48.406;-4.518;2023-06-14T03:39:14;25.70;54.16
74087;SHT30;62445;48.406;-4.518;2023-06-14T03:41:40;25.69;54.22
74087;SHT30;62445;48.406;-4.518;2023-06-14T03:44:05;25.68;54.16
74087;SHT30;62445;48.406;-4.518;2023-06-14T03:46:31;25.69;54.13
74087;SHT30;62445;48.406;-4.518;2023-06-14T03:48:56;25.70;54.13
74087;SHT30;62445;48.406;-4.518;2023-06-14T03:51:22;25.66;54.11
74087;SHT30;62445;48.406;-4.518;2023-06-14T03:53:48;25.66;54.12
74087;SHT30;62445;48.406;-4.518;2023-06-14T03:56:15;25.66;54.11
74087;SHT30;62445;48.406;-4.518;2023-06-14T03:58:40;25.66;54.08
74087;SHT30;62445;48.406;-4.518;2023-06-14T04:01:06;25.68;54.08
74087;SHT30;62445;48.406;-4.518;2023-06-14T04:03:32;25.65;54.16
74087;SHT30;62445;48.406;-4.518;2023-06-14T04:05:58;25.66;54.15
74087;SHT30;62445;48.406;-4.518;2023-06-14T04:08:25;25.65;54.14
74087;SHT30;62445;48.406;-4.518;2023-06-14T04:10:50;25.68;54.10
74087;SHT30;62445;48.406;-4.518;2023-06-14T04:13:16;25.66;54.13
74087;SHT30;62445;48.406;-4.518;2023-06-14T04:15:42;25.65;54.11
74087;SHT30;62445;48.406;-4.518;2023-06-14T04:18:09;25.65;54.17
74087;SHT30;62445;48.406;-4.518;2023-06-14T04:20:34;25.63;54.15
74087;SHT30;62445;48.406;-4.518;2023-06-14T04:23:11;25.63;54.08
74087;SHT30;62445;48.406;-4.518;2023-06-14T04:25:38;25.65;54.10
74087;SHT30;62445;48.406;-4.518;2023-06-14T04:28:03;25.63;54.07
74087;SHT30;62445;48.406;-4.518;2023-06-14T04:30:29;25.63;54.09
74087;SHT30;62445;48.406;-4.518;2023-06-14T04:32:56;25.62;54.08
74087;SHT30;62445;48.406;-4.518;2023-06-14T04:35:22;25.62;54.12
74087;SHT30;62445;48.406;-4.518;2023-06-14T04:37:49;25.63;54.09
74087;SHT30;62445;48.406;-4.518;2023-06-14T04:40:15;25.63;54.11
74087;SHT30;62445;48.406;-4.518;2023-06-14T04:42:40;25.62;54.13
74087;SHT30;62445;48.406;-4.518;2023-06-14T04:45:06;25.62;54.10
74087;SHT30;62445;48.406;-4.518;2023-06-14T04:47:32;25.61;54.13
74087;SHT30;62445;48.406;-4.518;2023-06-14T04:49:59;25.62;54.11
74087;SHT30;62445;48.406;-4.518;2023-06-14T04:52:25;25.61;54.12
74087;SHT30;62445;48.406;-4.518;2023-06-14T04:54:52;25.61;54.15
74087;SHT30;62445;48.406;-4.518;2023-06-14T04:57:19;25.61;54.06
74087;SHT30;62445;48.406;-4.518;2023-06-14T04:59:47;25.61;54.10
74087;SHT30;62445;48.406;-4.518;2023-06-14T05:02:13;25.61;54.16
74087;SHT30;62445;48.406;-4.518;2023-06-14T05:04:39;25.57;54.12
74087;SHT30;62445;48.406;-4.518;2023-06-14T05:07:07;25.61;54.15
74087;SHT30;62445;48.406;-4.518;2023-06-14T05:09:34;25.59;54.17
74087;SHT30;62445;48.406;-4.518;2023-06-14T05:12:00;25.59;54.19
74087;SHT30;62445;48.406;-4.518;2023-06-14T05:14:25;25.61;54.09
74087;SHT30;62445;48.406;-4.518;2023-06-14T05:16:51;25.61;54.12
74087;SHT30;62445;48.406;-4.518;2023-06-14T05:19:17;25.58;54.15
74087;SHT30;62445;48.406;-4.518;2023-06-14T05:21:43;25.61;54.10
74087;SHT30;62445;48.406;-4.518;2023-06-14T05:24:09;25.58;54.17
74087;SHT30;62445;48.406;-4.518;2023-06-14T05:26:35;25.58;54.17
74087;SHT30;62445;48.406;-4.518;2023-06-14T05:29:00;25.57;54.11
74087;SHT30;62445;48.406;-4.518;2023-06-14T05:31:27;25.59;54.12
74087;SHT30;62445;48.406;-4.518;2023-06-14T05:33:53;25.58;54.12
74087;SHT30;62445;48.406;-4.518;2023-06-14T05:36:20;25.58;54.08
74087;SHT30;62445;48.406;-4.518;2023-06-14T05:38:46;25.57;54.12
74087;SHT30;62445;48.406;-4.518;2023-06-14T05:41:12;25.57;54.16
74087;SHT30;62445;48.406;-4.518;2023-06-14T05:43:37;25.53;54.14
74087;SHT30;62445;48.406;-4.518;2023-06-14T05:46:03;25.57;54.13
74087;SHT30;62445;48.406;-4.518;2023-06-14T05:48:30;25.55;54.08
74087;SHT30;62445;48.406;-4.518;2023-06-14T05:50:55;25.58;54.08
74087;SHT30;62445;48.406;-4.518;2023-06-14T05:53:21;25.53;54.07
74087;SHT30;62445;48.406;-4.518;2023-06-14T05:55:46;25.53;54.10
74087;SHT30;62445;48.406;-4.518;2023-06-14T05:58:12;25.55;54.09
74087;SHT30;62445;48.406;-4.518;2023-06-14T06:00:39;25.57;54.16
74087;SHT30;62445;48.406;-4.518;2023-06-14T06:03:04;25.55;54.07
74087;SHT30;62445;48.406;-4.518;2023-06-14T06:05:30;25.52;54.09
74087;SHT30;62445;48.406;-4.518;2023-06-14T06:07:55;25.55;54.10
74087;SHT30;62445;48.406;-4.518;2023-06-14T06:10:21;25.53;54.14
74087;SHT30;62445;48.406;-4.518;2023-06-14T06:12:46;25.53;54.13
74087;SHT30;62445;48.406;-4.518;2023-06-14T06:15:13;25.51;54.15
74087;SHT30;62445;48.406;-4.518;2023-06-14T06:17:39;25.52;54.21
74087;SHT30;62445;48.406;-4.518;2023-06-14T06:20:05;25.53;54.17
74087;SHT30;62445;48.406;-4.518;2023-06-14T06:22:33;25.55;54.12
74087;SHT30;62445;48.406;-4.518;2023-06-14T06:24:59;25.53;54.17
74087;SHT30;62445;48.406;-4.518;2023-06-14T06:27:25;25.51;54.15
74087;SHT30;62445;48.406;-4.518;2023-06-14T06:29:50;25.53;54.29
74087;SHT30;62445;48.406;-4.518;2023-06-14T06:32:17;25.53;54.22
74087;SHT30;62445;48.406;-4.518;2023-06-14T06:34:42;25.55;54.22
74087;SHT30;62445;48.406;-4.518;2023-06-14T06:37:08;25.55;54.20
74087;SHT30;62445;48.406;-4.518;2023-06-14T06:39:33;25.57;54.12
74087;SHT30;62445;48.406;-4.518;2023-06-14T06:41:59;25.55;54.05
74087;SHT30;62445;48.406;-4.518;2023-06-14T06:44:24;25.55;54.02
74087;SHT30;62445;48.406;-4.518;2023-06-14T06:46:50;25.58;54.04
74087;SHT30;62445;48.406;-4.518;2023-06-14T06:49:15;25.55;54.02
74087;SHT30;62445;48.406;-4.518;2023-06-14T06:51:42;25.58;54.02
74087;SHT30;62445;48.406;-4.518;2023-06-14T06:54:08;25.57;54.03
74087;SHT30;62445;48.406;-4.518;2023-06-14T06:56:34;25.57;54.09
74087;SHT30;62445;48.406;-4.518;2023-06-14T06:59:00;25.57;54.13
74087;SHT30;62445;48.406;-4.518;2023-06-14T07:01:25;25.58;54.19
74087;SHT30;62445;48.406;-4.518;2023-06-14T07:03:51;25.61;54.16
74087;SHT30;62445;48.406;-4.518;2023-06-14T07:06:17;25.58;54.07
74087;SHT30;62445;48.406;-4.518;2023-06-14T07:08:44;25.59;54.05
74087;SHT30;62445;48.406;-4.518;2023-06-14T07:11:09;25.59;54.06
74087;SHT30;62445;48.406;-4.518;2023-06-14T07:13:35;25.58;54.01
74087;SHT30;62445;48.406;-4.518;2023-06-14T07:16:01;25.59;53.99
74087;SHT30;62445;48.406;-4.518;2023-06-14T07:18:27;25.57;54.00
74087;SHT30;62445;48.406;-4.518;2023-06-14T07:20:53;25.59;54.01
74087;SHT30;62445;48.406;-4.518;2023-06-14T07:23:20;25.59;53.94
74087;SHT30;62445;48.406;-4.518;2023-06-14T07:25:46;25.59;53.96
74087;SHT30;62445;48.406;-4.518;2023-06-14T07:28:11;25.61;53.92
74087;SHT30;62445;48.406;-4.518;2023-06-14T07:30:37;25.59;53.84
74087;SHT30;62445;48.406;-4.518;2023-06-14T07:33:02;25.61;53.80
74087;SHT30;62445;48.406;-4.518;2023-06-14T07:35:28;25.61;53.80
74087;SHT30;62445;48.406;-4.518;2023-06-14T07:37:53;25.63;53.91
74087;SHT30;62445;48.406;-4.518;2023-06-14T07:40:18;25.62;54.21
74087;SHT30;62445;48.406;-4.518;2023-06-14T07:42:44;25.66;54.33
74087;SHT30;62445;48.406;-4.518;2023-06-14T07:45:10;25.68;54.18
74087;SHT30;62445;48.406;-4.518;2023-06-14T07:47:35;25.68;54.00
74087;SHT30;62445;48.406;-4.518;2023-06-14T07:50:01;25.69;54.04
74087;SHT30;62445;48.406;-4.518;2023-06-14T07:52:26;25.72;53.96
74087;SHT30;62445;48.406;-4.518;2023-06-14T07:54:51;25.75;53.94
74087;SHT30;62445;48.406;-4.518;2023-06-14T07:57:17;25.70;53.93
74087;SHT30;62445;48.406;-4.518;2023-06-14T07:59:45;25.70;53.96
74087;SHT30;62445;48.406;-4.518;2023-06-14T08:02:10;25.68;53.94
74087;SHT30;62445;48.406;-4.518;2023-06-14T08:04:36;25.69;53.99
74087;SHT30;62445;48.406;-4.518;2023-06-14T08:07:01;25.70;53.97
74087;SHT30;62445;48.406;-4.518;2023-06-14T08:09:27;25.68;54.00
74087;SHT30;62445;48.406;-4.518;2023-06-14T08:11:54;25.69;53.97
74087;SHT30;62445;48.406;-4.518;2023-06-14T08:14:19;25.65;53.98
74087;SHT30;62445;48.406;-4.518;2023-06-14T08:16:45;25.69;53.97
74087;SHT30;62445;48.406;-4.518;2023-06-14T08:19:10;25.69;54.00
74087;SHT30;62445;48.406;-4.518;2023-06-14T08:21:36;25.70;54.01
74087;SHT30;62445;48.406;-4.518;2023-06-14T08:24:02;25.70;54.01
74087;SHT30;62445;48.406;-4.518;2023-06-14T08:26:27;25.69;54.02
74087;SHT30;62445;48.406;-4.518;2023-06-14T08:28:57;25.69;53.97
74087;SHT30;62445;48.406;-4.518;2023-06-14T08:31:22;25.69;53.98
74087;SHT30;62445;48.406;-4.518;2023-06-14T08:33:48;25.69;53.97
74087;SHT30;62445;48.406;-4.518;2023-06-14T08:36:14;25.70;53.94
74087;SHT30;62445;48.406;-4.518;2023-06-14T08:38:39;25.72;53.96
74087;SHT30;62445;48.406;-4.518;2023-06-14T08:41:05;25.70;53.95
74087;SHT30;62445;48.406;-4.518;2023-06-14T08:43:34;25.72;53.96
74087;SHT30;62445;48.406;-4.518;2023-06-14T08:46:03;25.73;53.93
74087;SHT30;62445;48.406;-4.518;2023-06-14T08:48:29;25.73;53.89
74087;SHT30;62445;48.406;-4.518;2023-06-14T08:50:59;25.75;53.85
74087;SHT30;62445;48.406;-4.518;2023-06-14T08:53:31;25.76;53.82
74087;SHT30;62445;48.406;-4.518;2023-06-14T08:55:58;25.76;53.82
74087;SHT30;62445;48.406;-4.518;2023-06-14T08:58:30;25.76;53.82
74087;SHT30;62445;48.406;-4.518;2023-06-14T09:00:57;25.76;53.79
74087;SHT30;62445;48.406;-4.518;2023-06-14T09:03:23;25.73;53.81
74087;SHT30;62445;48.406;-4.518;2023-06-14T09:05:56;25.78;53.79
74087;SHT30;62445;48.406;-4.518;2023-06-14T09:08:27;25.75;53.78
74087;SHT30;62445;48.406;-4.518;2023-06-14T09:10:56;25.78;53.77
74087;SHT30;62445;48.406;-4.518;2023-06-14T09:13:22;25.75;53.79
74087;SHT30;62445;48.406;-4.518;2023-06-14T09:15:47;25.75;53.75
74087;SHT30;62445;48.406;-4.518;2023-06-14T09:18:13;25.76;53.74
74087;SHT30;62445;48.406;-4.518;2023-06-14T09:20:39;25.78;53.71
74087;SHT30;62445;48.406;-4.518;2023-06-14T09:23:05;25.82;53.69
74087;SHT30;62445;48.406;-4.518;2023-06-14T09:25:32;25.82;53.68
74087;SHT30;62445;48.406;-4.518;2023-06-14T09:27:57;25.82;53.62
74087;SHT30;62445;48.406;-4.518;2023-06-14T09:30:25;25.82;53.65
74087;SHT30;62445;48.406;-4.518;2023-06-14T09:32:51;25.80;53.62
74087;SHT30;62445;48.406;-4.518;2023-06-14T09:35:17;25.85;53.67
74087;SHT30;62445;48.406;-4.518;2023-06-14T09:37:43;25.82;53.67
74087;SHT30;62445;48.406;-4.518;2023-06-14T09:40:09;25.83;53.65
74087;SHT30;62445;48.406;-4.518;2023-06-14T09:42:35;25.82;53.64
74087;SHT30;62445;48.406;-4.518;2023-06-14T09:45:02;25.82;53.64
74087;SHT30;62445;48.406;-4.518;2023-06-14T09:47:29;25.82;53.62
74087;SHT30;62445;48.406;-4.518;2023-06-14T09:49:54;25.83;53.63
74087;SHT30;62445;48.406;-4.518;2023-06-14T09:52:21;25.82;53.64
74087;SHT30;62445;48.406;-4.518;2023-06-14T09:54:48;25.82;53.74
74087;SHT30;62445;48.406;-4.518;2023-06-14T09:57:20;25.80;53.82
74087;SHT30;62445;48.406;-4.518;2023-06-14T09:59:47;25.82;53.86
74087;SHT30;62445;48.406;-4.518;2023-06-14T10:02:25;25.85;53.87
74087;SHT30;62445;48.406;-4.518;2023-06-14T10:07:27;25.83;53.90
74087;SHT30;62445;48.406;-4.518;2023-06-14T10:09:55;25.86;53.95
74087;SHT30;62445;48.406;-4.518;2023-06-14T10:12:21;25.85;53.90
74087;SHT30;62445;48.406;-4.518;2023-06-14T10:14:51;25.89;53.90
74087;SHT30;62445;48.406;-4.518;2023-06-14T10:17:35;25.90;53.81
74087;SHT30;62445;48.406;-4.518;2023-06-14T10:20:27;25.93;53.83
74087;SHT30;62445;48.406;-4.518;2023-06-14T10:23:04;25.94;53.81
74087;SHT30;62445;48.406;-4.518;2023-06-14T10:25:31;25.99;53.79
74087;SHT30;62445;48.406;-4.518;2023-06-14T10:28:17;26.03;53.73
74087;SHT30;62445;48.406;-4.518;2023-06-14T10:31:11;26.07;53.66
74087;SHT30;62445;48.406;-4.518;2023-06-14T10:33:56;26.04;53.68
74087;SHT30;62445;48.406;-4.518;2023-06-14T10:36:28;26.09;53.72
74087;SHT30;62445;48.406;-4.518;2023-06-14T10:39:04;26.06;53.60
74087;SHT30;62445;48.406;-4.518;2023-06-14T10:41:31;26.10;53.65
74087;SHT30;62445;48.406;-4.518;2023-06-14T10:46:58;26.10;53.63
74087;SHT30;62445;48.406;-4.518;2023-06-14T10:52:08;26.13;53.52
74087;SHT30;62445;48.406;-4.518;2023-06-14T10:55:08;26.10;53.52
74087;SHT30;62445;48.406;-4.518;2023-06-14T10:57:43;26.12;53.46
74087;SHT30;62445;48.406;-4.518;2023-06-14T11:00:11;26.12;53.39
74087;SHT30;62445;48.406;-4.518;2023-06-14T11:05:28;26.16;53.37
74087;SHT30;62445;48.406;-4.518;2023-06-14T11:10:43;26.20;53.35
74087;SHT30;62445;48.406;-4.518;2023-06-14T11:13:10;26.23;53.26
74087;SHT30;62445;48.406;-4.518;2023-06-14T11:15:37;26.24;53.28
74087;SHT30;62445;48.406;-4.518;2023-06-14T11:18:07;26.24;53.30
74087;SHT30;62445;48.406;-4.518;2023-06-14T11:20:35;26.26;53.27
74087;SHT30;62445;48.406;-4.518;2023-06-14T11:23:01;26.27;53.34
74087;SHT30;62445;48.406;-4.518;2023-06-14T11:25:27;26.31;53.39
74087;SHT30;62445;48.406;-4.518;2023-06-14T11:27:57;26.31;53.30
74087;SHT30;62445;48.406;-4.518;2023-06-14T11:30:23;26.34;53.31
74087;SHT30;62445;48.406;-4.518;2023-06-14T11:32:50;26.36;53.26
74087;SHT30;62445;48.406;-4.518;2023-06-14T11:35:16;26.38;53.23
74087;SHT30;62445;48.406;-4.518;2023-06-14T11:37:42;26.37;53.24
74087;SHT30;62445;48.406;-4.518;2023-06-14T11:40:10;26.40;53.20
74087;SHT30;62445;48.406;-4.518;2023-06-14T11:42:38;26.44;53.15
74087;SHT30;62445;48.406;-4.518;2023-06-14T11:45:04;26.45;53.11
74087;SHT30;62445;48.406;-4.518;2023-06-14T11:47:33;26.47;53.10
74087;SHT30;62445;48.406;-4.518;2023-06-14T11:49:59;26.47;53.09
74087;SHT30;62445;48.406;-4.518;2023-06-14T11:52:25;26.44;53.07
74087;SHT30;62445;48.406;-4.518;2023-06-14T11:54:51;26.45;53.13
74087;SHT30;62445;48.406;-4.518;2023-06-14T11:57:20;26.47;53.09
74087;SHT30;62445;48.406;-4.518;2023-06-14T11:59:46;26.49;53.04
74087;SHT30;62445;48.406;-4.518;2023-06-14T12:02:15;26.51;52.97
74087;SHT30;62445;48.406;-4.518;2023-06-14T12:04:42;26.54;52.92
74087;SHT30;62445;48.406;-4.518;2023-06-14T12:07:11;26.55;52.87
74087;SHT30;62445;48.406;-4.518;2023-06-14T12:09:39;26.55;52.90
74087;SHT30;62445;48.406;-4.518;2023-06-14T12:12:05;26.58;52.89
74087;SHT30;62445;48.406;-4.518;2023-06-14T12:14:31;26.59;52.85
74087;SHT30;62445;48.406;-4.518;2023-06-14T12:17:05;26.59;52.90
74087;SHT30;62445;48.406;-4.518;2023-06-14T12:19:41;26.61;52.91
74087;SHT30;62445;48.406;-4.518;2023-06-14T12:22:09;26.58;52.89
74087;SHT30;62445;48.406;-4.518;2023-06-14T12:24:35;26.61;52.90
74087;SHT30;62445;48.406;-4.518;2023-06-14T12:27:01;26.64;52.87
74087;SHT30;62445;48.406;-4.518;2023-06-14T12:29:30;26.65;52.85
74087;SHT30;62445;48.406;-4.518;2023-06-14T12:31:56;26.65;52.77
74087;SHT30;62445;48.406;-4.518;2023-06-14T12:34:26;26.68;52.84
74087;SHT30;62445;48.406;-4.518;2023-06-14T12:36:55;26.69;52.79
74087;SHT30;62445;48.406;-4.518;2023-06-14T12:39:21;26.71;52.75
74087;SHT30;62445;48.406;-4.518;2023-06-14T12:41:47;26.72;52.73
74087;SHT30;62445;48.406;-4.518;2023-06-14T12:44:14;26.75;52.73
74087;SHT30;62445;48.406;-4.518;2023-06-14T12:46:41;26.74;52.75
74087;SHT30;62445;48.406;-4.518;2023-06-14T12:49:13;26.72;52.76
74087;SHT30;62445;48.406;-4.518;2023-06-14T12:51:39;26.74;52.74
74087;SHT30;62445;48.406;-4.518;2023-06-14T12:54:05;26.72;52.73
74087;SHT30;62445;48.406;-4.518;2023-06-14T12:56:31;26.74;52.78
74087;SHT30;62445;48.406;-4.518;2023-06-14T12:58:58;26.74;52.81
74087;SHT30;62445;48.406;-4.518;2023-06-14T13:01:23;26.71;52.84
74087;SHT30;62445;48.406;-4.518;2023-06-14T13:03:49;26.72;52.80
74087;SHT30;62445;48.406;-4.518;2023-06-14T13:06:17;26.75;52.79
74087;SHT30;62445;48.406;-4.518;2023-06-14T13:08:42;26.76;52.79
74087;SHT30;62445;48.406;-4.518;2023-06-14T13:11:08;26.78;52.72
74087;SHT30;62445;48.406;-4.518;2023-06-14T13:13:34;26.78;52.72
74087;SHT30;62445;48.406;-4.518;2023-06-14T13:15:59;26.79;52.73
74087;SHT30;62445;48.406;-4.518;2023-06-14T13:18:25;26.81;52.72
74087;SHT30;62445;48.406;-4.518;2023-06-14T13:20:51;26.85;52.69
74087;SHT30;62445;48.406;-4.518;2023-06-14T13:23:16;26.81;52.70
74087;SHT30;62445;48.406;-4.518;2023-06-14T13:25:42;26.85;52.67
74087;SHT30;62445;48.406;-4.518;2023-06-14T13:28:08;26.85;52.63
74087;SHT30;62445;48.406;-4.518;2023-06-14T13:30:33;26.88;52.64
74087;SHT30;62445;48.406;-4.518;2023-06-14T13:32:59;26.88;52.58
74087;SHT30;62445;48.406;-4.518;2023-06-14T13:35:25;26.91;52.60
74087;SHT30;62445;48.406;-4.518;2023-06-14T13:37:51;26.89;52.59
74087;SHT30;62445;48.406;-4.518;2023-06-14T13:40:17;26.96;52.52
74087;SHT30;62445;48.406;-4.518;2023-06-14T13:42:42;26.99;52.47
74087;SHT30;62445;48.406;-4.518;2023-06-14T13:45:09;26.99;52.43
74087;SHT30;62445;48.406;-4.518;2023-06-14T13:47:35;26.98;52.47
74087;SHT30;62445;48.406;-4.518;2023-06-14T13:50:00;27.03;52.41
74087;SHT30;62445;48.406;-4.518;2023-06-14T13:52:26;27.05;52.33
74087;SHT30;62445;48.406;-4.518;2023-06-14T13:54:52;27.06;52.34
74087;SHT30;62445;48.406;-4.518;2023-06-14T13:57:18;27.09;52.29
74087;SHT30;62445;48.406;-4.518;2023-06-14T13:59:44;27.14;52.27
74087;SHT30;62445;48.406;-4.518;2023-06-14T14:02:12;27.14;52.20
74087;SHT30;62445;48.406;-4.518;2023-06-14T14:04:39;27.22;52.14
74087;SHT30;62445;48.406;-4.518;2023-06-14T14:07:05;27.20;52.07
74087;SHT30;62445;48.406;-4.518;2023-06-14T14:09:32;27.23;52.04
74087;SHT30;62445;48.406;-4.518;2023-06-14T14:11:58;27.29;51.98
74087;SHT30;62445;48.406;-4.518;2023-06-14T14:14:24;27.33;51.93
74087;SHT30;62445;48.406;-4.518;2023-06-14T14:16:50;27.36;51.87
74087;SHT30;62445;48.406;-4.518;2023-06-14T14:19:17;27.40;51.79
74087;SHT30;62445;48.406;-4.518;2023-06-14T14:21:44;27.44;51.68
74087;SHT30;62445;48.406;-4.518;2023-06-14T14:24:10;27.49;51.61
74087;SHT30;62445;48.406;-4.518;2023-06-14T14:26:36;27.55;51.48
74087;SHT30;62445;48.406;-4.518;2023-06-14T14:29:01;27.61;51.43
74087;SHT30;62445;48.406;-4.518;2023-06-14T14:31:28;27.67;51.35
74087;SHT30;62445;48.406;-4.518;2023-06-14T14:33:53;27.74;51.22
74087;SHT30;62445;48.406;-4.518;2023-06-14T14:36:19;27.78;51.11
74087;SHT30;62445;48.406;-4.518;2023-06-14T14:38:44;27.81;51.04
74087;SHT30;62445;48.406;-4.518;2023-06-14T14:41:10;27.87;50.91
74087;SHT30;62445;48.406;-4.518;2023-06-14T14:43:35;27.95;50.78
74087;SHT30;62445;48.406;-4.518;2023-06-14T14:46:01;28.05;50.59
74087;SHT30;62445;48.406;-4.518;2023-06-14T14:48:26;28.18;50.25
74087;SHT30;62445;48.406;-4.518;2023-06-14T14:50:52;28.31;50.04
74087;SHT30;62445;48.406;-4.518;2023-06-14T14:53:17;28.45;49.72
74087;SHT30;62445;48.406;-4.518;2023-06-14T14:55:43;28.63;49.31
74087;SHT30;62445;48.406;-4.518;2023-06-14T14:58:09;28.83;48.96
74087;SHT30;62445;48.406;-4.518;2023-06-14T15:00:35;29.01;48.54
74087;SHT30;62445;48.406;-4.518;2023-06-14T15:03:00;29.22;48.06
74087;SHT30;62445;48.406;-4.518;2023-06-14T15:05:26;29.45;47.60
74087;SHT30;62445;48.406;-4.518;2023-06-14T15:07:52;29.74;47.04
74087;SHT30;62445;48.406;-4.518;2023-06-14T15:10:17;30.06;46.39
74087;SHT30;62445;48.406;-4.518;2023-06-14T15:12:42;30.38;45.74
74087;SHT30;62445;48.406;-4.518;2023-06-14T15:15:08;30.68;45.02
74087;SHT30;62445;48.406;-4.518;2023-06-14T15:17:34;31.03;44.45
74087;SHT30;62445;48.406;-4.518;2023-06-14T15:20:00;31.31;43.92
74087;SHT30;62445;48.406;-4.518;2023-06-14T15:22:26;31.58;43.26
74087;SHT30;62445;48.406;-4.518;2023-06-14T15:24:51;31.82;42.78
74087;SHT30;62445;48.406;-4.518;2023-06-14T15:27:17;31.99;42.41
74087;SHT30;62445;48.406;-4.518;2023-06-14T15:29:43;32.22;42.04